Time;durP1;ratioP1;P1;durP2;ratioP2;P2;SDS_P1;SDS_P2;PMS_P1;PMS_P2;Temp;Humidity;BMP_temperature;BMP_pressure;BME280_temperature;BME280_humidity;BME280_pressure;Samples;Min_cycle;Max_cycle;Signal;HPM_P1;HPM_P2
2022/07/14 00:01:40;;;;;;;11.87;2.33;;;;;;;13.68;100.00;102061.56;10447940;28;20044;-64
2022/07/14 00:06:41;;;;;;;18.48;3.10;;;;;;;13.70;100.00;102072.38;10448944;28;20037;-63
2022/07/14 00:11:41;;;;;;;9.25;2.22;;;;;;;13.68;100.00;102066.22;10451085;28;20052;-64
2022/07/14 00:16:42;;;;;;;11.15;2.63;;;;;;;13.58;100.00;102053.06;10481459;28;20086;-63
2022/07/14 00:21:42;;;;;;;8.00;2.53;;;;;;;13.54;100.00;102057.41;10490600;28;20041;-64
2022/07/14 00:26:43;;;;;;;9.80;2.25;;;;;;;13.46;100.00;102052.25;10472343;28;20037;-64
2022/07/14 00:31:44;;;;;;;9.50;2.28;;;;;;;13.38;100.00;102050.69;10488818;28;20044;-65
2022/07/14 00:36:45;;;;;;;17.90;3.78;;;;;;;13.22;100.00;102051.41;10490379;28;20222;-64
2022/07/14 00:41:45;;;;;;;13.13;2.35;;;;;;;13.05;100.00;102035.56;10491202;28;20064;-62
2022/07/14 00:46:45;;;;;;;15.60;2.70;;;;;;;13.06;100.00;102047.47;10488124;28;20047;-64
2022/07/14 00:51:46;;;;;;;12.35;2.70;;;;;;;12.95;100.00;102037.28;10487948;28;20036;-64
2022/07/14 00:56:47;;;;;;;12.70;3.28;;;;;;;13.03;100.00;102057.09;10488891;28;20049;-64
2022/07/14 01:01:47;;;;;;;12.05;3.78;;;;;;;13.04;100.00;102061.56;10489969;28;20036;-63
2022/07/14 01:06:47;;;;;;;13.82;2.63;;;;;;;12.97;100.00;102043.41;10487408;28;20047;-64
2022/07/14 01:11:48;;;;;;;12.90;2.97;;;;;;;12.97;100.00;102049.78;10490471;28;20029;-64
2022/07/14 01:16:54;;;;;;;11.30;2.80;;;;;;;12.85;100.00;102037.88;10470553;28;20037;-64
2022/07/14 01:21:55;;;;;;;12.10;3.40;;;;;;;12.77;100.00;102033.56;10466267;28;20037;-64
2022/07/14 01:26:55;;;;;;;14.05;3.28;;;;;;;12.74;100.00;102038.75;10488812;28;20032;-64
2022/07/14 01:31:56;;;;;;;9.65;2.50;;;;;;;12.68;100.00;102040.53;10488759;28;20039;-64
2022/07/14 01:36:57;;;;;;;11.80;2.80;;;;;;;12.64;100.00;102031.03;10488500;28;20028;-64
2022/07/14 01:41:57;;;;;;;20.35;4.38;;;;;;;12.58;100.00;102029.25;10490099;28;20052;-64
2022/07/14 01:46:58;;;;;;;17.85;3.25;;;;;;;12.55;100.00;102033.31;10489231;28;20040;-64
2022/07/14 01:51:58;;;;;;;13.60;2.38;;;;;;;12.47;100.00;102017.09;10487850;28;20028;-63
2022/07/14 01:56:59;;;;;;;15.90;3.88;;;;;;;12.40;100.00;102010.84;10487331;28;20040;-64
2022/07/14 02:01:59;;;;;;;6.00;2.70;;;;;;;12.42;100.00;102026.13;10487702;28;20059;-64
2022/07/14 02:07:00;;;;;;;10.93;3.28;;;;;;;12.35;100.00;102030.06;10489879;28;20065;-64
2022/07/14 02:12:12;;;;;;;13.93;3.08;;;;;;;12.28;100.00;102028.25;10497033;28;20037;-63
2022/07/14 02:17:13;;;;;;;10.48;3.15;;;;;;;12.23;100.00;102030.03;10498081;28;20032;-64
2022/07/14 02:22:13;;;;;;;11.00;3.40;;;;;;;12.15;100.00;102028.44;10466015;28;20067;-64
2022/07/14 02:27:14;;;;;;;8.75;3.30;;;;;;;12.10;100.00;102028.34;10454722;28;20029;-64
2022/07/14 02:32:14;;;;;;;15.15;3.38;;;;;;;12.02;100.00;102025.91;10454177;28;20037;-64
2022/07/14 02:37:14;;;;;;;15.18;4.40;;;;;;;11.94;100.00;102026.25;10454443;28;20044;-64
2022/07/14 02:42:15;;;;;;;12.77;3.15;;;;;;;11.85;100.00;102036.75;10455666;28;20041;-64
2022/07/14 02:47:16;;;;;;;12.77;3.92;;;;;;;11.77;100.00;102026.88;10454169;28;20025;-63
2022/07/14 02:52:16;;;;;;;14.10;3.70;;;;;;;11.72;100.00;102029.50;10481220;28;20070;-64
2022/07/14 02:57:17;;;;;;;15.45;3.58;;;;;;;11.62;100.00;102015.44;10495319;28;20076;-62
2022/07/14 03:02:17;;;;;;;12.80;3.90;;;;;;;11.55;100.00;102017.44;10493275;28;20033;-64
2022/07/14 03:07:18;;;;;;;15.88;4.60;;;;;;;11.62;100.00;102040.25;10470795;28;20048;-63
2022/07/14 03:12:18;;;;;;;13.70;4.18;;;;;;;11.61;100.00;102030.28;10454231;28;20071;-63
2022/07/14 03:17:19;;;;;;;16.00;4.93;;;;;;;11.60;100.00;102031.38;10451917;28;20048;-64
2022/07/14 03:22:19;;;;;;;10.38;4.20;;;;;;;11.59;100.00;102027.75;10449219;28;21012;-64
2022/07/14 03:27:20;;;;;;;14.02;4.30;;;;;;;11.56;100.00;102043.94;10452103;28;20029;-64
2022/07/14 03:32:20;;;;;;;15.02;4.57;;;;;;;11.56;100.00;102043.94;10452659;28;20053;-64
2022/07/14 03:37:21;;;;;;;17.60;5.20;;;;;;;11.56;100.00;102046.72;10463564;28;20029;-64
2022/07/14 03:42:21;;;;;;;17.02;4.30;;;;;;;11.56;100.00;102049.47;10494574;28;20036;-63
2022/07/14 03:47:22;;;;;;;9.13;4.55;;;;;;;11.56;100.00;102049.47;10493819;28;20472;-61
2022/07/14 03:52:23;;;;;;;14.68;4.63;;;;;;;11.57;100.00;102048.38;10457636;28;20052;-65
2022/07/14 03:57:23;;;;;;;14.75;5.10;;;;;;;11.56;100.00;102049.47;10450450;28;20040;-64
2022/07/14 04:02:24;;;;;;;12.10;4.50;;;;;;;11.57;100.00;102046.44;10449394;28;20086;-64
2022/07/14 04:07:24;;;;;;;15.18;4.50;;;;;;;11.61;100.00;102055.09;10432078;28;20542;-64
2022/07/14 04:12:25;;;;;;;15.18;4.97;;;;;;;11.64;100.00;102046.38;10450178;28;20503;-64
2022/07/14 04:17:25;;;;;;;17.95;5.35;;;;;;;11.75;100.00;102042.81;10448230;28;20130;-65
2022/07/14 04:22:26;;;;;;;22.02;5.75;;;;;;;11.76;100.00;102038.13;10480297;28;20636;-65
2022/07/14 04:27:27;;;;;;;18.23;6.00;;;;;;;11.82;100.00;102031.69;10489843;28;20343;-64
2022/07/14 04:32:27;;;;;;;22.83;5.65;;;;;;;11.87;100.00;102040.13;10489493;28;20036;-65
2022/07/14 04:37:28;;;;;;;13.43;5.03;;;;;;;11.92;100.00;102040.28;10490096;28;20549;-65
2022/07/14 04:42:28;;;;;;;13.73;4.90;;;;;;;11.30;100.00;101935.66;10489686;28;20105;-64
2022/07/14 04:47:29;;;;;;;18.15;5.90;;;;;;;11.95;100.00;102047.22;10454974;28;20040;-65
2022/07/14 04:52:29;;;;;;;14.48;4.85;;;;;;;11.98;100.00;102053.13;10448009;28;20044;-65
2022/07/14 04:57:29;;;;;;;10.48;5.35;;;;;;;12.06;100.00;102051.97;10446942;28;20072;-64
2022/07/14 05:02:30;;;;;;;12.85;5.13;;;;;;;12.11;100.00;102052.09;10469359;28;20036;-63
2022/07/14 05:07:30;;;;;;;20.13;6.57;;;;;;;12.18;100.00;102052.00;10489613;28;20045;-64
2022/07/14 05:12:31;;;;;;;12.23;4.75;;;;;;;12.25;100.00;102053.56;10490208;28;20071;-65
2022/07/14 05:17:31;;;;;;;13.85;5.32;;;;;;;12.38;100.00;102051.66;10487131;28;20037;-64
2022/07/14 05:22:39;;;;;;;12.15;4.70;;;;;;;12.12;100.00;102001.34;10462597;28;20568;-64
2022/07/14 05:27:41;;;;;;;12.98;4.55;;;;;;;12.60;100.00;102058.31;10445136;28;20051;-64
2022/07/14 05:32:41;;;;;;;12.73;4.57;;;;;;;12.76;100.00;102053.16;10447019;28;20041;-64
2022/07/14 05:37:42;;;;;;;13.68;4.28;;;;;;;12.90;100.00;102049.91;10447866;28;20063;-64
2022/07/14 05:42:42;;;;;;;8.60;3.42;;;;;;;13.05;100.00;102035.56;10445470;28;20037;-64
2022/07/14 05:47:43;;;;;;;11.95;3.20;;;;;;;13.37;100.00;102043.47;10445700;28;20037;-66
2022/07/14 05:52:43;;;;;;;8.52;2.70;;;;;;;13.61;100.00;102048.94;10444862;28;20029;-64
2022/07/14 05:57:44;;;;;;;6.28;2.45;;;;;;;13.94;100.00;102042.66;10445996;28;20044;-64
2022/07/14 06:02:45;;;;;;;11.73;2.58;;;;;;;14.25;100.00;102027.44;10445972;28;20049;-64
2022/07/14 06:07:45;;;;;;;11.40;1.95;;;;;;;14.68;100.00;102037.03;10448967;28;20045;-64
2022/07/14 06:12:46;;;;;;;11.30;2.17;;;;;;;15.09;100.00;102048.72;10463643;28;20078;-62
2022/07/14 06:17:47;;;;;;;9.52;1.77;;;;;;;15.44;100.00;102044.75;10485178;28;20048;-62
2022/07/14 06:22:48;;;;;;;7.55;1.30;;;;;;;15.81;100.00;102037.69;10487244;28;20049;-65
2022/07/14 06:27:48;;;;;;;8.48;1.65;;;;;;;16.12;100.00;102039.69;10476943;28;20060;-64
2022/07/14 06:32:49;;;;;;;4.60;1.27;;;;;;;16.36;100.00;102021.81;10446106;28;20033;-64
2022/07/14 06:37:52;;;;;;;3.60;0.95;;;;;;;16.60;100.00;102023.13;10452201;28;20036;-64
2022/07/14 06:42:52;;;;;;;6.45;0.95;;;;;;;16.95;100.00;102024.50;10488934;28;20052;-64
2022/07/14 06:47:53;;;;;;;5.47;0.60;;;;;;;17.05;100.00;102007.88;10488234;28;20056;-64
2022/07/14 06:52:53;;;;;;;3.42;0.90;;;;;;;17.30;100.00;102003.50;10477219;28;20039;-64
2022/07/14 06:57:54;;;;;;;8.10;0.60;;;;;;;17.17;100.00;101998.44;10469064;28;20060;-64
2022/07/14 07:02:54;;;;;;;4.60;0.60;;;;;;;17.09;100.00;102008.13;10469094;28;20048;-64
2022/07/14 07:07:59;;;;;;;5.50;0.73;;;;;;;17.43;100.00;101997.44;10486728;28;20063;-64
2022/07/14 07:13:00;;;;;;;5.28;1.33;;;;;;;17.59;100.00;101995.56;10478671;28;20110;-64
2022/07/14 07:18:01;;;;;;;4.15;0.70;;;;;;;17.73;100.00;102004.19;10472976;28;20088;-65
2022/07/14 07:23:02;;;;;;;6.03;0.63;;;;;;;17.79;100.00;102000.31;10494159;28;20029;-65
2022/07/14 07:28:03;;;;;;;3.88;0.80;;;;;;;17.98;100.00;101995.06;10459620;28;20064;-64
2022/07/14 07:33:04;;;;;;;5.97;1.23;;;;;;;18.04;100.00;101993.13;10467682;28;20179;-64
2022/07/14 07:38:04;;;;;;;3.25;0.65;;;;;;;18.06;100.00;101994.53;10475297;28;20037;-64
2022/07/14 07:43:04;;;;;;;5.40;0.98;;;;;;;18.20;100.00;101994.81;10470758;28;20036;-65
2022/07/14 07:48:06;;;;;;;2.63;0.45;;;;;;;18.33;100.00;101983.13;10478593;28;20102;-65
2022/07/14 07:53:07;;;;;;;3.38;1.13;;;;;;;18.71;100.00;101978.03;10472849;28;20051;-64
2022/07/14 07:58:07;;;;;;;3.78;0.60;;;;;;;18.63;100.00;101981.38;10472160;28;20527;-65
2022/07/14 08:03:08;;;;;;;4.57;0.50;;;;;;;18.54;100.00;101946.81;10470723;28;20052;-64
2022/07/14 08:08:09;;;;;;;3.97;0.65;;;;;;;18.95;97.75;101957.88;10470008;28;20025;-64
2022/07/14 08:13:09;;;;;;;4.40;0.77;;;;;;;18.76;96.22;101947.31;10472351;28;20058;-66
2022/07/14 08:18:10;;;;;;;4.43;0.50;;;;;;;18.47;95.86;101954.66;10467794;28;20041;-65
2022/07/14 08:23:10;;;;;;;3.95;0.63;;;;;;;19.05;97.39;101935.53;10452951;28;20036;-64
2022/07/14 08:28:11;;;;;;;2.13;0.40;;;;;;;19.54;93.33;101934.69;10468596;28;20040;-65
2022/07/14 08:33:11;;;;;;;1.77;0.43;;;;;;;19.52;90.27;101914.59;10470095;28;20036;-62
2022/07/14 08:38:12;;;;;;;4.10;0.50;;;;;;;19.26;91.87;101936.25;10470880;28;20060;-67
2022/07/14 08:43:12;;;;;;;1.30;0.30;;;;;;;19.51;92.53;101935.28;10470521;28;20037;-65
2022/07/14 08:48:13;;;;;;;2.38;0.50;;;;;;;20.05;89.14;101921.47;10457438;28;20048;-64
2022/07/14 08:53:14;;;;;;;3.30;0.55;;;;;;;20.29;88.38;101888.81;10449975;28;20052;-61
2022/07/14 08:58:15;;;;;;;3.13;0.40;;;;;;;20.55;84.99;101913.75;10459418;28;20130;-64
2022/07/14 09:03:15;;;;;;;1.52;0.30;;;;;;;20.80;84.77;101897.81;10474253;28;20036;-63
2022/07/14 09:08:17;;;;;;;3.10;0.63;;;;;;;20.95;85.40;101906.81;10466532;28;21845;-64
2022/07/14 09:13:20;;;;;;;2.30;0.60;;;;;;;20.76;85.42;101909.59;10451413;28;20048;-65
2022/07/14 09:18:27;;;;;;;1.92;0.45;;;;;;;;;;10487690;28;20043;-64
2022/07/14 09:23:31;;;;;;;1.95;0.50;;;;;;;20.50;84.22;101905.38;10488188;28;20044;-64
2022/07/14 09:28:37;;;;;;;2.17;0.80;;;;;;;20.29;88.22;101929.94;10465641;28;20040;-64
2022/07/14 09:33:38;;;;;;;3.35;0.60;;;;;;;19.95;86.85;101911.25;10432263;28;20064;-64
2022/07/14 09:38:45;;;;;;;4.22;0.63;;;;;;;20.32;85.14;101910.63;10429079;28;20407;-64
2022/07/14 09:44:07;;;;;;;3.60;0.52;;;;;;;20.81;86.88;101922.69;10446633;28;20120;-64
2022/07/14 09:49:08;;;;;;;3.03;0.40;;;;;;;20.96;82.92;101910.47;10455776;28;21648;-64
2022/07/14 09:54:08;;;;;;;3.42;0.50;;;;;;;20.95;83.00;101908.81;10467033;28;20467;-65
2022/07/14 09:59:09;;;;;;;2.95;0.35;;;;;;;21.27;83.20;101926.84;10470152;28;20030;-64
2022/07/14 10:04:09;;;;;;;2.53;0.50;;;;;;;20.86;84.57;101913.41;10467276;28;20037;-65
2022/07/14 10:09:10;;;;;;;3.40;0.90;;;;;;;21.06;83.29;101913.13;10446590;28;20033;-65
2022/07/14 10:14:10;;;;;;;2.83;0.40;;;;;;;21.14;81.51;101903.22;10467508;28;20035;-64
2022/07/14 10:19:11;;;;;;;3.60;0.68;;;;;;;21.23;82.54;101906.19;10469312;28;20549;-65
2022/07/14 10:24:12;;;;;;;3.35;0.70;;;;;;;21.74;83.85;101908.25;10446724;28;20382;-65
2022/07/14 10:29:12;;;;;;;3.80;0.80;;;;;;;21.38;81.89;101899.56;10490061;28;20477;-65
2022/07/14 10:34:31;;;;;;;2.72;0.47;;;;;;;21.51;81.05;101907.22;10479385;28;20079;-67
2022/07/14 10:39:31;;;;;;;4.70;0.50;;;;;;;21.73;82.93;101915.00;10436736;28;20040;-67
2022/07/14 10:44:32;;;;;;;2.70;0.60;;;;;;;22.04;79.54;101900.47;10454819;28;20052;-64
2022/07/14 10:50:01;;;;;;;3.75;0.50;;;;;;;22.02;78.35;101894.34;10451856;28;20465;-64
2022/07/14 10:55:27;;;;;;;3.85;0.95;;;;;;;21.72;79.51;101897.34;10456245;28;20033;-64
2022/07/14 11:00:59;;;;;;;2.80;0.43;;;;;;;21.76;78.30;101891.97;10453523;28;20057;-65
2022/07/14 11:06:00;;;;;;;4.18;0.63;;;;;;;21.89;79.77;101894.00;10449845;28;20115;-64
2022/07/14 11:11:01;;;;;;;2.67;0.93;;;;;;;21.60;77.89;101882.13;10453706;28;20053;-65
2022/07/14 11:16:03;;;;;;;2.80;0.85;;;;;;;21.58;80.65;101902.06;10465392;28;20515;-63
2022/07/14 11:21:17;;;;;;;1.48;0.40;;;;;;;21.04;81.51;101898.59;10466389;28;20033;-66
2022/07/14 11:26:35;;;;;;;4.85;0.43;;;;;;;20.88;82.87;101916.75;10474315;28;20064;-65
2022/07/14 11:31:45;;;;;;;2.17;0.45;;;;;;;20.12;84.23;101919.19;10494203;28;20048;-64
2022/07/14 11:37:15;;;;;;;3.67;0.52;;;;;;;20.12;87.32;101927.59;10492474;28;20047;-64
2022/07/14 11:42:17;;;;;;;4.18;0.50;;;;;;;20.16;86.09;101937.06;10481647;28;20055;-64
2022/07/14 11:47:21;;;;;;;2.17;0.40;;;;;;;20.33;86.61;101917.03;10484738;28;20119;-64
2022/07/14 11:52:32;;;;;;;3.95;0.75;;;;;;;20.72;87.56;101930.91;10487003;28;20115;-64
2022/07/14 11:57:33;;;;;;;4.20;0.80;;;;;;;21.18;84.57;101923.91;10450634;28;20496;-64
2022/07/14 12:02:37;;;;;;;4.53;0.60;;;;;;;22.20;82.19;101915.88;10450528;28;20037;-64
2022/07/14 12:07:46;;;;;;;1.23;0.35;;;;;;;23.27;79.28;101900.84;10452288;28;20071;-64
2022/07/14 12:12:47;;;;;;;3.53;0.65;;;;;;;24.16;75.30;101896.44;10452305;28;20044;-64
2022/07/14 12:17:49;;;;;;;2.17;0.75;;;;;;;23.13;74.20;101886.84;10451409;28;20037;-64
2022/07/14 12:22:54;;;;;;;2.92;0.60;;;;;;;22.64;74.20;101886.44;10452155;28;20041;-63
2022/07/14 12:27:55;;;;;;;3.90;0.60;;;;;;;22.99;77.24;101895.28;10452019;28;20036;-65
2022/07/14 12:32:56;;;;;;;3.00;0.50;;;;;;;23.20;72.76;101866.75;10450208;28;20438;-63
2022/07/14 12:37:56;;;;;;;4.32;0.43;;;;;;;22.75;73.06;101890.69;10479353;28;20033;-63
2022/07/14 12:42:57;;;;;;;3.38;0.50;;;;;;;21.85;75.82;101878.94;10461499;28;20045;-64
2022/07/14 12:48:03;;;;;;;1.80;0.43;;;;;;;21.15;77.02;101894.53;10431785;28;20029;-64
2022/07/14 12:53:07;;;;;;;2.47;1.08;;;;;;;20.14;80.58;101897.38;10449511;28;20088;-63
2022/07/14 12:58:09;;;;;;;2.65;0.35;;;;;;;20.00;81.93;101913.16;10449347;28;20060;-64
2022/07/14 13:03:13;;;;;;;4.40;0.45;;;;;;;19.45;83.94;101852.66;10461549;28;20041;-64
2022/07/14 13:08:32;;;;;;;2.65;0.60;;;;;;;19.70;85.65;101915.03;10489998;28;20055;-64
2022/07/14 13:13:37;;;;;;;2.85;0.60;;;;;;;20.20;85.77;101918.56;10488865;28;20102;-64
2022/07/14 13:18:38;;;;;;;3.55;0.47;;;;;;;20.52;83.35;101900.31;10490348;28;20040;-64
2022/07/14 13:23:38;;;;;;;2.13;0.57;;;;;;;20.43;82.19;101905.75;10454727;28;20056;-64
2022/07/14 13:28:42;;;;;;;2.67;0.68;;;;;;;20.30;82.08;101903.66;10487515;28;20064;-64
2022/07/14 13:33:47;;;;;;;3.80;0.57;;;;;;;20.10;81.93;101904.69;10490823;28;20060;-65
2022/07/14 13:38:48;;;;;;;1.90;0.32;;;;;;;19.97;79.56;101892.22;10489044;28;20508;-65
2022/07/14 13:43:50;;;;;;;2.80;0.70;;;;;;;20.08;83.38;101909.72;10482120;28;20104;-65
2022/07/14 13:48:51;;;;;;;6.45;0.77;;;;;;;20.24;81.15;101902.88;10487768;28;20063;-65
2022/07/14 13:53:51;;;;;;;1.92;0.50;;;;;;;20.28;80.70;101920.72;10489916;28;20028;-64
2022/07/14 13:58:52;;;;;;;2.40;0.52;;;;;;;20.40;79.34;101895.13;10484737;28;20071;-65
2022/07/14 14:03:52;;;;;;;3.30;0.60;;;;;;;20.18;78.61;101887.28;10488886;28;20040;-65
2022/07/14 14:08:52;;;;;;;3.17;1.20;;;;;;;20.33;80.27;101891.88;10488896;28;20049;-65
2022/07/14 14:13:53;;;;;;;2.38;0.40;;;;;;;21.73;75.71;101839.34;10488608;28;20037;-65
2022/07/14 14:18:54;;;;;;;5.63;0.73;;;;;;;22.93;70.18;101845.97;10477028;28;20045;-64
2022/07/14 14:23:55;;;;;;;3.97;0.50;;;;;;;22.51;71.47;101847.97;10447182;28;20037;-66
2022/07/14 14:28:55;;;;;;;5.57;1.67;;;;;;;21.27;73.56;101856.84;10448719;28;20045;-65
2022/07/14 14:33:56;;;;;;;2.85;0.60;;;;;;;20.80;76.22;101881.03;10448318;28;20029;-64
2022/07/14 14:38:56;;;;;;;2.42;0.70;;;;;;;20.21;76.93;101881.06;10447796;28;20045;-65
2022/07/14 14:43:57;;;;;;;7.72;1.00;;;;;;;19.82;77.68;101892.34;10459273;28;20090;-65
2022/07/14 14:48:57;;;;;;;1.05;0.40;;;;;;;20.74;77.86;101877.44;10464403;28;20032;-64
2022/07/14 14:53:57;;;;;;;4.68;1.27;;;;;;;22.37;73.93;101864.81;10466636;28;20052;-65
2022/07/14 14:58:58;;;;;;;3.58;0.70;;;;;;;21.59;73.69;101874.88;10475179;28;20047;-64
2022/07/14 15:03:58;;;;;;;5.53;0.60;;;;;;;20.87;75.72;101887.91;10475269;28;20036;-65
2022/07/14 15:08:59;;;;;;;4.40;0.65;;;;;;;20.39;76.93;101892.66;10445761;28;20048;-65
2022/07/14 15:13:59;;;;;;;7.07;0.70;;;;;;;20.56;77.74;101893.00;10446663;28;20041;-64
2022/07/14 15:19:00;;;;;;;1.95;0.52;;;;;;;20.87;75.87;101889.88;10452897;28;20083;-64
2022/07/14 15:24:00;;;;;;;4.70;0.55;;;;;;;20.46;76.41;101893.13;10450299;28;20483;-64
2022/07/14 15:29:01;;;;;;;3.65;0.40;;;;;;;20.05;75.97;101899.13;10455356;28;20041;-65
2022/07/14 15:34:02;;;;;;;5.82;0.47;;;;;;;21.28;73.65;101895.75;10453296;28;20029;-64
2022/07/14 15:44:21;;;;;;;5.15;1.08;;;;;;;19.95;82.25;101934.44;10453681;28;20041;-64
2022/07/14 15:49:22;;;;;;;3.85;0.90;;;;;;;19.01;86.43;101940.00;10453809;28;20029;-65
2022/07/14 15:54:22;;;;;;;6.85;1.48;;;;;;;18.66;90.89;101952.09;10462289;28;20047;-65
2022/07/14 15:59:24;;;;;;;5.10;1.13;;;;;;;18.48;95.04;101957.16;10472321;28;20033;-64
2022/07/14 16:04:25;;;;;;;4.63;1.20;;;;;;;18.57;99.97;101960.22;10452183;28;20037;-64
2022/07/14 16:09:25;;;;;;;7.63;0.90;;;;;;;18.53;100.00;101945.16;10464897;28;20076;-64
2022/07/14 16:14:26;;;;;;;1.98;0.80;;;;;;;18.01;100.00;101951.91;10465075;28;20064;-65
2022/07/14 16:19:26;;;;;;;2.70;1.00;;;;;;;18.42;100.00;101940.69;10464487;28;20064;-64
2022/07/14 16:24:27;;;;;;;5.03;1.33;;;;;;;19.67;98.53;101913.66;10460885;28;20036;-64
2022/07/14 16:29:30;;;;;;;3.78;0.90;;;;;;;19.80;91.74;101895.41;10456073;28;20025;-65
2022/07/14 16:34:31;;;;;;;4.53;1.23;;;;;;;19.44;90.68;101912.44;10457267;28;20071;-65
2022/07/14 16:39:31;;;;;;;4.53;1.50;;;;;;;20.13;86.32;101898.50;10457144;28;20045;-65
2022/07/14 16:44:32;;;;;;;3.35;0.93;;;;;;;19.82;87.13;101904.34;10461765;28;20393;-64
2022/07/14 16:49:32;;;;;;;4.97;1.27;;;;;;;19.59;87.99;101891.94;10446929;28;20040;-64
2022/07/14 16:54:33;;;;;;;7.07;1.42;;;;;;;19.56;89.81;101900.91;10433747;28;20411;-65
2022/07/14 16:59:34;;;;;;;10.40;1.52;;;;;;;19.66;89.84;101908.38;10438426;28;20071;-65
2022/07/14 17:04:35;;;;;;;4.78;1.33;;;;;;;19.51;94.66;101929.72;10448446;28;20044;-63
2022/07/14 17:09:35;;;;;;;5.25;1.40;;;;;;;19.26;94.91;101922.28;10448606;28;20044;-66
2022/07/14 17:14:35;;;;;;;7.07;2.20;;;;;;;18.81;99.32;101928.91;10447776;28;20049;-66
2022/07/14 17:19:37;;;;;;;9.27;1.50;;;;;;;18.52;100.00;101933.19;10448192;28;20037;-65
2022/07/14 17:24:37;;;;;;;5.60;1.42;;;;;;;18.24;100.00;101933.78;10449257;28;20075;-65
2022/07/14 17:29:37;;;;;;;9.18;2.33;;;;;;;18.27;100.00;101922.03;10446508;28;20041;-65
2022/07/14 17:34:38;;;;;;;6.90;1.10;;;;;;;18.47;97.01;101926.75;10447101;28;20037;-64
2022/07/14 17:39:40;;;;;;;7.18;1.58;;;;;;;18.75;95.93;101911.34;10446856;28;20047;-64
2022/07/14 17:44:40;;;;;;;14.93;1.98;;;;;;;18.81;96.99;101926.13;10445814;28;20067;-65
2022/07/14 17:49:41;;;;;;;10.93;1.48;;;;;;;18.65;96.66;101923.38;10461768;28;20024;-64
2022/07/14 17:54:41;;;;;;;7.60;1.45;;;;;;;18.57;97.60;101937.91;10449558;28;20037;-64
2022/07/14 17:59:42;;;;;;;7.35;1.50;;;;;;;18.45;97.82;101940.16;10461950;28;20591;-65
2022/07/14 18:04:43;;;;;;;8.90;1.20;;;;;;;18.27;92.43;101931.28;10448202;28;20037;-64
2022/07/14 18:09:43;;;;;;;8.80;1.95;;;;;;;18.17;95.63;101938.78;10447590;28;20037;-64
2022/07/14 18:14:44;;;;;;;5.03;1.90;;;;;;;17.84;99.77;101947.44;10445262;28;20120;-64
2022/07/14 18:19:44;;;;;;;8.95;1.48;;;;;;;17.96;100.00;101972.22;10445322;28;20048;-64
2022/07/14 18:24:45;;;;;;;8.88;1.55;;;;;;;17.86;100.00;101967.50;10485087;28;20045;-64
2022/07/14 18:29:45;;;;;;;7.72;2.20;;;;;;;17.82;100.00;101966.34;10446350;28;20063;-64
2022/07/14 18:34:46;;;;;;;9.32;1.63;;;;;;;17.78;100.00;101967.16;10445444;28;20037;-64
2022/07/14 18:39:46;;;;;;;7.22;1.50;;;;;;;17.55;100.00;101955.44;10464280;28;20070;-65
2022/07/14 18:50:06;;;;;;;5.90;1.50;;;;;;;17.35;100.00;101972.91;10478334;28;20033;-64
2022/07/14 18:55:11;;;;;;;11.68;1.88;;;;;;;17.19;100.00;101980.38;10452138;28;20067;-64
2022/07/14 19:00:12;;;;;;;9.05;1.85;;;;;;;17.01;100.00;101978.91;10455287;28;20041;-64
2022/07/14 19:05:13;;;;;;;5.43;1.35;;;;;;;16.89;100.00;101986.63;10454343;28;20029;-64
2022/07/14 19:10:13;;;;;;;5.20;1.40;;;;;;;16.69;100.00;101979.81;10465999;28;20037;-64
2022/07/14 19:15:14;;;;;;;8.02;1.50;;;;;;;16.62;100.00;101987.56;10463538;28;20239;-64
2022/07/14 19:20:14;;;;;;;5.93;1.05;;;;;;;16.50;100.00;101989.69;10467398;28;20088;-64
2022/07/14 19:25:15;;;;;;;7.22;1.40;;;;;;;16.43;100.00;102005.75;10464796;28;20496;-64
2022/07/14 19:30:15;;;;;;;7.30;1.20;;;;;;;16.48;100.00;102003.03;10465985;28;20537;-64
2022/07/14 19:35:16;;;;;;;5.40;1.20;;;;;;;16.49;100.00;102015.81;10451935;28;20028;-64
2022/07/14 19:40:17;;;;;;;4.82;1.05;;;;;;;16.42;100.00;102013.25;10457574;28;20093;-65
2022/07/14 19:45:18;;;;;;;5.50;1.67;;;;;;;16.33;100.00;102025.97;10453021;28;20567;-61
2022/07/14 19:50:18;;;;;;;11.48;2.50;;;;;;;16.26;100.00;102031.75;10453645;28;20052;-63
2022/07/14 19:55:20;;;;;;;5.60;1.80;;;;;;;16.14;100.00;102033.84;10474428;28;20496;-62
2022/07/14 20:00:24;;;;;;;4.10;1.13;;;;;;;16.10;100.00;102041.88;10471106;28;20048;-64
2022/07/14 20:05:25;;;;;;;9.15;1.35;;;;;;;16.04;100.00;102055.97;10448637;28;20083;-64
2022/07/14 20:10:25;;;;;;;6.10;1.05;;;;;;;15.87;100.00;102054.13;10451127;28;20037;-64
2022/07/14 20:15:26;;;;;;;5.13;1.20;;;;;;;15.65;100.00;102056.94;10449072;28;20051;-63
2022/07/14 20:20:26;;;;;;;7.25;1.30;;;;;;;15.44;100.00;102053.06;10479940;28;20072;-63
2022/07/14 20:25:27;;;;;;;7.88;1.60;;;;;;;15.32;100.00;102063.47;10453001;28;20104;-64
2022/07/14 20:35:47;;;;;;;7.40;1.30;;;;;;;14.99;100.00;102076.31;10440400;28;20037;-64
2022/07/14 20:40:48;;;;;;;6.57;1.33;;;;;;;14.84;100.00;102079.69;10463270;28;20075;-64
2022/07/14 20:45:48;;;;;;;5.95;1.55;;;;;;;14.67;100.00;102076.91;10475760;28;20037;-62
2022/07/14 20:50:49;;;;;;;11.13;2.20;;;;;;;14.49;100.00;102080.78;10447063;28;20033;-64
2022/07/14 20:55:49;;;;;;;8.57;1.67;;;;;;;14.34;100.00;102088.78;10448775;28;20509;-64
2022/07/14 21:00:49;;;;;;;7.13;0.98;;;;;;;14.28;100.00;102084.25;10449047;28;20071;-64
2022/07/14 21:05:50;;;;;;;8.85;1.50;;;;;;;14.14;100.00;102086.53;10455367;28;20515;-64
2022/07/14 21:10:51;;;;;;;11.40;2.28;;;;;;;13.88;100.00;102058.34;10450769;28;20037;-63
2022/07/14 21:15:52;;;;;;;9.45;1.70;;;;;;;13.87;100.00;102087.13;10462820;28;20049;-61
2022/07/14 21:20:52;;;;;;;10.55;2.20;;;;;;;13.77;100.00;102073.06;10457697;28;20055;-64
2022/07/14 21:25:52;;;;;;;8.20;1.70;;;;;;;13.72;100.00;102084.03;10450353;28;20512;-63
2022/07/14 21:30:53;;;;;;;8.68;1.65;;;;;;;13.59;100.00;102076.84;10456661;28;20036;-64
2022/07/14 21:35:53;;;;;;;8.27;1.80;;;;;;;13.49;100.00;102077.47;10458452;28;20511;-63
2022/07/14 21:40:54;;;;;;;7.57;1.75;;;;;;;13.37;100.00;102076.66;10466597;28;20039;-63
2022/07/14 21:45:55;;;;;;;3.90;1.20;;;;;;;13.21;100.00;102069.94;10460928;28;20060;-64
2022/07/14 21:50:55;;;;;;;4.70;1.55;;;;;;;13.17;100.00;102073.41;10432193;28;20025;-63
2022/07/14 21:55:57;;;;;;;14.40;3.17;;;;;;;13.04;100.00;102078.16;10446661;28;20060;-64
2022/07/14 22:00:57;;;;;;;9.98;1.63;;;;;;;12.93;100.00;102078.97;10445890;28;20439;-63
2022/07/14 22:05:58;;;;;;;6.35;1.40;;;;;;;12.82;100.00;102083.44;10443681;28;20059;-63
2022/07/14 22:10:58;;;;;;;6.47;1.90;;;;;;;12.70;100.00;102086.19;10444001;28;20033;-63
2022/07/14 22:15:59;;;;;;;9.52;1.92;;;;;;;12.61;100.00;102082.09;10448862;28;20045;-63
2022/07/14 22:20:59;;;;;;;8.07;1.90;;;;;;;12.44;100.00;102067.28;10445995;28;20175;-63
2022/07/14 22:26:01;;;;;;;7.30;2.15;;;;;;;12.38;100.00;102071.00;10448941;28;20060;-63
2022/07/14 22:31:01;;;;;;;9.52;1.95;;;;;;;12.30;100.00;102084.09;10451895;28;20037;-63
2022/07/14 22:36:02;;;;;;;8.93;1.67;;;;;;;12.22;100.00;102087.19;10453519;28;20032;-63
2022/07/14 22:41:03;;;;;;;6.25;1.70;;;;;;;12.15;100.00;102085.59;10453678;28;20041;-63
2022/07/14 22:46:03;;;;;;;12.93;2.40;;;;;;;12.04;100.00;102087.25;10455326;28;20041;-64
2022/07/14 22:51:04;;;;;;;7.45;1.75;;;;;;;11.93;100.00;102082.50;10454546;28;20029;-63
2022/07/14 22:56:05;;;;;;;9.30;1.55;;;;;;;12.03;100.00;102080.03;10453973;28;20037;-64
2022/07/14 23:01:05;;;;;;;10.43;1.40;;;;;;;12.15;100.00;102082.81;10458621;28;20044;-64
2022/07/14 23:06:05;;;;;;;9.15;1.40;;;;;;;12.31;100.00;102080.22;10494039;28;20126;-63
2022/07/14 23:12:25;;;;;;;7.10;1.40;;;;;;;12.50;100.00;102080.16;10494578;28;20349;-61